Toledo, Iowa
Current Conditions -  °F | °C
As of 12:53 PM on Sunday 21 Dec 2014 (Local Time) from KMIW Reporting Station
Overcast Overcast  
Wind Chill: 29°   Ceiling: 1200
Heat Index: 39°   Visibility: 10mi
Dew Point: 36°   Wind: 21mph
Humidity: 89%   Direction: 190°S
Pressure: 29.87"   Gusts: 28mph
Location:  42°N, 92.58°W
Report Text: KMIW 211853Z AUTO 19018G24KT 10SM OVC012 04/02 A2987 RMK AO2 PK WND 19027/1807 SLP121 T00390022
Loading
Personal Weather Stations






























Interactive Weather Map New forecast layout! Learn more

10-Day Weather Forecast

Advertisements
Track Severe Weather on mobile